Holloman Air Force Base
KHMN : now visible

Airfield :











YOU CAN JOIN US ON...

 
LOGIN :

Register | Disclaimer

   EN    FR    IT 

 









Legend :    VFR   Marginal VFR   IFR   Intensive IFR   Very Intensive IFR
Visi :
Ceiling :
>= 8 km
>= 3000ft
5 to 8 km
1000 to 3000 ft
1500m to 5 km
500 to 1000 ft
800 to 1500m
200 to 500 ft
< 800m
< 200 ft
Symbols :   Thunderstorms  Fog  Heavy snow  Heavy precipitations  Wind > 20 kt






- Airport Elevation : 4093 ft


KHMN - Holloman Air Force Base

CURRENT METAR :
  • 280358Z AUTO 24004KT 10SM BKN150 27/M01 A2995 RMK AO2 SLP068 T02711009 $

EXPIRED METARs :
  • 280258Z AUTO 00000KT 10SM BKN150 29/M01 A2992 RMK AO2 SLP058 T02901012 52009 $
  • 280158Z AUTO 00000KT 10SM FEW150 32/M02 A2992 RMK AO2 SLP058 T03231019 $

TAF COR TAF KHMN
Valid from the 27 at 23:00 until the 28 at 23:00 UTC


272306Z 2723/2823 32010G20KT 9999 SCT140 QNH2992INS
BECMG 2800/2801 VRB06KT 9999 SCT120 QNH2998INS
BECMG 2808/2809 VRB06KT 9999 FEW120 QNH3002INS
BECMG 2819/2820 29010G15KT 9999 SCT120 QNH3008INS TS OMTNS TX34/2822Z TN15/2812Z
KZAB FIR / North America



MET'MAP, your aeronautical weather chart ! - Copyright ORBIFLY December 2007 - Disclaimer

ORBIFLY MET'MAP TEAM :

Programming & Development : Alexandra Zaïnal
Concept & original design : Baudouin d'Aumeries
Assistance for programming : Marc-Olivier Méhu
Technical & hardware support : Manuel Goepfert

Contact : metmap@orbifly.com




SOURCES & CREDITS :

   NOAA       Earth
Advisory